sensor_id;sensor_type;location;lat;lon;timestamp;temperature;humidity
84298;DHT22;74466;51.188;3.242;2024-01-07T00:00:12;5.60;91.60
84298;DHT22;74466;51.188;3.242;2024-01-07T00:02:38;5.40;91.70
84298;DHT22;74466;51.188;3.242;2024-01-07T00:05:04;5.30;91.40
84298;DHT22;74466;51.188;3.242;2024-01-07T00:07:30;5.30;91.50
84298;DHT22;74466;51.188;3.242;2024-01-07T00:09:56;5.40;91.20
84298;DHT22;74466;51.188;3.242;2024-01-07T00:12:21;5.40;91.00
84298;DHT22;74466;51.188;3.242;2024-01-07T00:14:47;5.50;91.10
84298;DHT22;74466;51.188;3.242;2024-01-07T00:17:13;5.50;90.50
84298;DHT22;74466;51.188;3.242;2024-01-07T00:19:39;5.40;90.10
84298;DHT22;74466;51.188;3.242;2024-01-07T00:22:06;5.50;90.10
84298;DHT22;74466;51.188;3.242;2024-01-07T00:24:32;5.40;89.50
84298;DHT22;74466;51.188;3.242;2024-01-07T00:26:58;5.40;89.50
84298;DHT22;74466;51.188;3.242;2024-01-07T00:29:23;5.40;90.20
84298;DHT22;74466;51.188;3.242;2024-01-07T00:31:49;5.20;90.10
84298;DHT22;74466;51.188;3.242;2024-01-07T00:34:15;5.20;90.30
84298;DHT22;74466;51.188;3.242;2024-01-07T00:36:41;5.20;90.10
84298;DHT22;74466;51.188;3.242;2024-01-07T00:39:07;5.10;90.40
84298;DHT22;74466;51.188;3.242;2024-01-07T00:41:32;5.10;90.00
84298;DHT22;74466;51.188;3.242;2024-01-07T00:43:58;5.10;90.30
84298;DHT22;74466;51.188;3.242;2024-01-07T00:46:24;5.10;89.60
84298;DHT22;74466;51.188;3.242;2024-01-07T00:48:49;5.10;90.10
84298;DHT22;74466;51.188;3.242;2024-01-07T00:51:15;5.00;90.40
84298;DHT22;74466;51.188;3.242;2024-01-07T00:53:41;4.90;90.20
84298;DHT22;74466;51.188;3.242;2024-01-07T00:56:06;4.90;90.40
84298;DHT22;74466;51.188;3.242;2024-01-07T00:58:32;4.80;90.20
84298;DHT22;74466;51.188;3.242;2024-01-07T01:00:59;4.80;90.20
84298;DHT22;74466;51.188;3.242;2024-01-07T01:03:26;4.80;90.20
84298;DHT22;74466;51.188;3.242;2024-01-07T01:05:52;4.70;90.40
84298;DHT22;74466;51.188;3.242;2024-01-07T01:08:18;4.60;89.70
84298;DHT22;74466;51.188;3.242;2024-01-07T01:10:44;4.60;90.40
84298;DHT22;74466;51.188;3.242;2024-01-07T01:13:10;4.60;89.20
84298;DHT22;74466;51.188;3.242;2024-01-07T01:15:36;4.70;89.70
84298;DHT22;74466;51.188;3.242;2024-01-07T01:18:01;4.70;89.20
84298;DHT22;74466;51.188;3.242;2024-01-07T01:20:28;4.60;88.90
84298;DHT22;74466;51.188;3.242;2024-01-07T01:22:54;4.60;89.00
84298;DHT22;74466;51.188;3.242;2024-01-07T01:25:20;4.60;88.20
84298;DHT22;74466;51.188;3.242;2024-01-07T01:27:46;4.50;87.90
84298;DHT22;74466;51.188;3.242;2024-01-07T01:30:12;4.50;87.90
84298;DHT22;74466;51.188;3.242;2024-01-07T01:32:39;4.50;88.20
84298;DHT22;74466;51.188;3.242;2024-01-07T01:35:05;4.40;88.60
84298;DHT22;74466;51.188;3.242;2024-01-07T01:37:31;4.40;88.80
84298;DHT22;74466;51.188;3.242;2024-01-07T01:39:58;4.40;88.50
84298;DHT22;74466;51.188;3.242;2024-01-07T01:42:25;4.40;88.60
84298;DHT22;74466;51.188;3.242;2024-01-07T01:44:51;4.40;88.10
84298;DHT22;74466;51.188;3.242;2024-01-07T01:47:17;4.40;88.50
84298;DHT22;74466;51.188;3.242;2024-01-07T01:49:45;4.40;88.90
84298;DHT22;74466;51.188;3.242;2024-01-07T01:52:11;4.30;88.60
84298;DHT22;74466;51.188;3.242;2024-01-07T01:54:38;4.30;88.60
84298;DHT22;74466;51.188;3.242;2024-01-07T01:57:05;4.20;89.50
84298;DHT22;74466;51.188;3.242;2024-01-07T01:59:32;4.30;88.60
84298;DHT22;74466;51.188;3.242;2024-01-07T02:01:59;4.30;88.50
84298;DHT22;74466;51.188;3.242;2024-01-07T02:04:25;4.30;88.40
84298;DHT22;74466;51.188;3.242;2024-01-07T02:06:51;4.30;88.90
84298;DHT22;74466;51.188;3.242;2024-01-07T02:09:16;4.30;88.80
84298;DHT22;74466;51.188;3.242;2024-01-07T02:11:42;4.30;89.10
84298;DHT22;74466;51.188;3.242;2024-01-07T02:14:08;4.40;88.60
84298;DHT22;74466;51.188;3.242;2024-01-07T02:16:33;4.40;88.70
84298;DHT22;74466;51.188;3.242;2024-01-07T02:18:59;4.40;88.90
84298;DHT22;74466;51.188;3.242;2024-01-07T02:21:25;4.30;88.20
84298;DHT22;74466;51.188;3.242;2024-01-07T02:23:51;4.40;87.90
84298;DHT22;74466;51.188;3.242;2024-01-07T02:26:17;4.40;87.50
84298;DHT22;74466;51.188;3.242;2024-01-07T02:28:42;4.30;87.30
84298;DHT22;74466;51.188;3.242;2024-01-07T02:31:08;4.30;87.00
84298;DHT22;74466;51.188;3.242;2024-01-07T02:33:34;4.40;87.80
84298;DHT22;74466;51.188;3.242;2024-01-07T02:36:00;4.40;87.60
84298;DHT22;74466;51.188;3.242;2024-01-07T02:38:26;4.30;87.30
84298;DHT22;74466;51.188;3.242;2024-01-07T02:40:51;4.30;88.30
84298;DHT22;74466;51.188;3.242;2024-01-07T02:43:17;4.30;88.80
84298;DHT22;74466;51.188;3.242;2024-01-07T02:45:43;4.30;88.90
84298;DHT22;74466;51.188;3.242;2024-01-07T02:48:08;4.30;88.50
84298;DHT22;74466;51.188;3.242;2024-01-07T02:50:34;4.30;88.30
84298;DHT22;74466;51.188;3.242;2024-01-07T02:53:00;4.30;89.00
84298;DHT22;74466;51.188;3.242;2024-01-07T02:55:25;4.10;88.00
84298;DHT22;74466;51.188;3.242;2024-01-07T02:57:51;4.10;88.70
84298;DHT22;74466;51.188;3.242;2024-01-07T03:00:17;4.10;87.00
84298;DHT22;74466;51.188;3.242;2024-01-07T03:02:44;4.00;87.30
84298;DHT22;74466;51.188;3.242;2024-01-07T03:05:09;4.00;87.40
84298;DHT22;74466;51.188;3.242;2024-01-07T03:07:35;3.90;88.10
84298;DHT22;74466;51.188;3.242;2024-01-07T03:10:02;3.90;88.30
84298;DHT22;74466;51.188;3.242;2024-01-07T03:12:28;3.80;87.00
84298;DHT22;74466;51.188;3.242;2024-01-07T03:14:54;3.80;89.20
84298;DHT22;74466;51.188;3.242;2024-01-07T03:17:20;3.80;89.00
84298;DHT22;74466;51.188;3.242;2024-01-07T03:19:47;3.80;89.30
84298;DHT22;74466;51.188;3.242;2024-01-07T03:22:13;3.70;89.70
84298;DHT22;74466;51.188;3.242;2024-01-07T03:24:39;3.70;89.30
84298;DHT22;74466;51.188;3.242;2024-01-07T03:27:05;3.70;89.20
84298;DHT22;74466;51.188;3.242;2024-01-07T03:29:30;3.70;88.30
84298;DHT22;74466;51.188;3.242;2024-01-07T03:31:56;3.70;89.50
84298;DHT22;74466;51.188;3.242;2024-01-07T03:34:22;3.60;89.90
84298;DHT22;74466;51.188;3.242;2024-01-07T03:36:47;3.60;89.60
84298;DHT22;74466;51.188;3.242;2024-01-07T03:39:13;3.60;90.00
84298;DHT22;74466;51.188;3.242;2024-01-07T03:41:39;3.60;90.00
84298;DHT22;74466;51.188;3.242;2024-01-07T03:44:05;3.70;90.10
84298;DHT22;74466;51.188;3.242;2024-01-07T03:46:31;3.70;89.40
84298;DHT22;74466;51.188;3.242;2024-01-07T03:48:56;3.70;90.20
84298;DHT22;74466;51.188;3.242;2024-01-07T03:51:22;3.70;89.50
84298;DHT22;74466;51.188;3.242;2024-01-07T03:53:48;3.70;89.30
84298;DHT22;74466;51.188;3.242;2024-01-07T03:56:14;3.80;90.10
84298;DHT22;74466;51.188;3.242;2024-01-07T03:58:40;3.70;90.40
84298;DHT22;74466;51.188;3.242;2024-01-07T04:01:06;3.70;90.30
84298;DHT22;74466;51.188;3.242;2024-01-07T04:03:31;3.70;90.40
84298;DHT22;74466;51.188;3.242;2024-01-07T04:05:57;3.70;90.70
84298;DHT22;74466;51.188;3.242;2024-01-07T04:08:22;3.80;90.30
84298;DHT22;74466;51.188;3.242;2024-01-07T04:10:48;3.80;90.50
84298;DHT22;74466;51.188;3.242;2024-01-07T04:13:14;3.80;90.30
84298;DHT22;74466;51.188;3.242;2024-01-07T04:15:40;3.80;90.10
84298;DHT22;74466;51.188;3.242;2024-01-07T04:18:05;3.90;90.40
84298;DHT22;74466;51.188;3.242;2024-01-07T04:20:32;3.90;90.00
84298;DHT22;74466;51.188;3.242;2024-01-07T04:22:58;3.90;89.40
84298;DHT22;74466;51.188;3.242;2024-01-07T04:25:24;3.90;90.10
84298;DHT22;74466;51.188;3.242;2024-01-07T04:27:50;3.80;89.20
84298;DHT22;74466;51.188;3.242;2024-01-07T04:30:15;3.90;89.30
84298;DHT22;74466;51.188;3.242;2024-01-07T04:32:42;3.90;89.40
84298;DHT22;74466;51.188;3.242;2024-01-07T04:35:07;3.90;90.00
84298;DHT22;74466;51.188;3.242;2024-01-07T04:37:34;3.90;89.00
84298;DHT22;74466;51.188;3.242;2024-01-07T04:40:00;3.90;90.10
84298;DHT22;74466;51.188;3.242;2024-01-07T04:42:26;3.90;89.10
84298;DHT22;74466;51.188;3.242;2024-01-07T04:44:52;3.80;88.90
84298;DHT22;74466;51.188;3.242;2024-01-07T04:49:50;3.70;89.30
84298;DHT22;74466;51.188;3.242;2024-01-07T04:52:16;3.70;90.00
84298;DHT22;74466;51.188;3.242;2024-01-07T04:54:42;3.70;89.70
84298;DHT22;74466;51.188;3.242;2024-01-07T04:57:08;3.60;90.20
84298;DHT22;74466;51.188;3.242;2024-01-07T04:59:33;3.60;90.00
84298;DHT22;74466;51.188;3.242;2024-01-07T05:02:00;3.60;89.40
84298;DHT22;74466;51.188;3.242;2024-01-07T05:04:25;3.60;89.50
84298;DHT22;74466;51.188;3.242;2024-01-07T05:06:51;3.60;89.30
84298;DHT22;74466;51.188;3.242;2024-01-07T05:09:17;3.60;88.50
84298;DHT22;74466;51.188;3.242;2024-01-07T05:11:43;3.60;88.90
84298;DHT22;74466;51.188;3.242;2024-01-07T05:14:11;3.60;88.40
84298;DHT22;74466;51.188;3.242;2024-01-07T05:16:37;3.50;88.60
84298;DHT22;74466;51.188;3.242;2024-01-07T05:19:03;3.50;89.20
84298;DHT22;74466;51.188;3.242;2024-01-07T05:21:29;3.50;88.70
84298;DHT22;74466;51.188;3.242;2024-01-07T05:23:54;3.50;88.10
84298;DHT22;74466;51.188;3.242;2024-01-07T05:26:21;3.60;88.10
84298;DHT22;74466;51.188;3.242;2024-01-07T05:28:47;3.60;88.80
84298;DHT22;74466;51.188;3.242;2024-01-07T05:31:16;3.60;88.10
84298;DHT22;74466;51.188;3.242;2024-01-07T05:33:43;3.60;88.10
84298;DHT22;74466;51.188;3.242;2024-01-07T05:36:09;3.60;87.90
84298;DHT22;74466;51.188;3.242;2024-01-07T05:38:35;3.60;88.00
84298;DHT22;74466;51.188;3.242;2024-01-07T05:41:00;3.60;89.50
84298;DHT22;74466;51.188;3.242;2024-01-07T05:43:26;3.60;89.70
84298;DHT22;74466;51.188;3.242;2024-01-07T05:45:52;3.60;88.30
84298;DHT22;74466;51.188;3.242;2024-01-07T05:48:22;3.60;87.90
84298;DHT22;74466;51.188;3.242;2024-01-07T05:50:48;3.50;88.40
84298;DHT22;74466;51.188;3.242;2024-01-07T05:53:15;3.50;89.00
84298;DHT22;74466;51.188;3.242;2024-01-07T05:55:41;3.40;89.60
84298;DHT22;74466;51.188;3.242;2024-01-07T05:58:07;3.50;89.50
84298;DHT22;74466;51.188;3.242;2024-01-07T06:00:33;3.60;89.00
84298;DHT22;74466;51.188;3.242;2024-01-07T06:02:58;3.60;89.00
84298;DHT22;74466;51.188;3.242;2024-01-07T06:05:24;3.60;89.60
84298;DHT22;74466;51.188;3.242;2024-01-07T06:07:50;3.50;89.50
84298;DHT22;74466;51.188;3.242;2024-01-07T06:10:15;3.60;90.00
84298;DHT22;74466;51.188;3.242;2024-01-07T06:12:41;3.70;89.10
84298;DHT22;74466;51.188;3.242;2024-01-07T06:15:07;3.60;87.80
84298;DHT22;74466;51.188;3.242;2024-01-07T06:17:33;3.70;88.10
84298;DHT22;74466;51.188;3.242;2024-01-07T06:19:58;3.70;89.50
84298;DHT22;74466;51.188;3.242;2024-01-07T06:22:25;3.70;90.00
84298;DHT22;74466;51.188;3.242;2024-01-07T06:24:50;3.70;88.30
84298;DHT22;74466;51.188;3.242;2024-01-07T06:27:16;3.70;88.80
84298;DHT22;74466;51.188;3.242;2024-01-07T06:29:42;3.60;89.10
84298;DHT22;74466;51.188;3.242;2024-01-07T06:32:07;3.70;90.00
84298;DHT22;74466;51.188;3.242;2024-01-07T06:34:35;3.70;90.30
84298;DHT22;74466;51.188;3.242;2024-01-07T06:37:01;3.70;90.10
84298;DHT22;74466;51.188;3.242;2024-01-07T06:39:28;3.60;89.50
84298;DHT22;74466;51.188;3.242;2024-01-07T06:41:54;3.60;89.80
84298;DHT22;74466;51.188;3.242;2024-01-07T06:44:20;3.70;90.00
84298;DHT22;74466;51.188;3.242;2024-01-07T06:46:46;3.70;89.80
84298;DHT22;74466;51.188;3.242;2024-01-07T06:49:11;3.70;89.80
84298;DHT22;74466;51.188;3.242;2024-01-07T06:51:37;3.70;89.40
84298;DHT22;74466;51.188;3.242;2024-01-07T06:54:05;3.80;89.70
84298;DHT22;74466;51.188;3.242;2024-01-07T06:56:30;3.80;90.00
84298;DHT22;74466;51.188;3.242;2024-01-07T06:58:56;3.80;89.50
84298;DHT22;74466;51.188;3.242;2024-01-07T07:01:23;3.80;89.90
84298;DHT22;74466;51.188;3.242;2024-01-07T07:03:49;3.80;89.20
84298;DHT22;74466;51.188;3.242;2024-01-07T07:06:15;3.80;89.40
84298;DHT22;74466;51.188;3.242;2024-01-07T07:08:41;3.70;89.50
84298;DHT22;74466;51.188;3.242;2024-01-07T07:11:07;3.60;90.30
84298;DHT22;74466;51.188;3.242;2024-01-07T07:13:33;3.60;90.40
84298;DHT22;74466;51.188;3.242;2024-01-07T07:16:00;3.70;90.20
84298;DHT22;74466;51.188;3.242;2024-01-07T07:18:25;3.70;89.70
84298;DHT22;74466;51.188;3.242;2024-01-07T07:20:52;3.70;89.90
84298;DHT22;74466;51.188;3.242;2024-01-07T07:23:17;3.70;89.80
84298;DHT22;74466;51.188;3.242;2024-01-07T07:25:43;3.80;89.40
84298;DHT22;74466;51.188;3.242;2024-01-07T07:28:09;3.70;89.50
84298;DHT22;74466;51.188;3.242;2024-01-07T07:30:35;3.70;90.00
84298;DHT22;74466;51.188;3.242;2024-01-07T07:33:01;3.70;89.90
84298;DHT22;74466;51.188;3.242;2024-01-07T07:35:27;3.70;89.50
84298;DHT22;74466;51.188;3.242;2024-01-07T07:37:53;3.70;90.10
84298;DHT22;74466;51.188;3.242;2024-01-07T07:40:19;3.60;90.30
84298;DHT22;74466;51.188;3.242;2024-01-07T07:42:45;3.60;90.60
84298;DHT22;74466;51.188;3.242;2024-01-07T07:45:11;3.50;90.50
84298;DHT22;74466;51.188;3.242;2024-01-07T07:47:37;3.50;90.90
84298;DHT22;74466;51.188;3.242;2024-01-07T07:50:03;3.50;91.30
84298;DHT22;74466;51.188;3.242;2024-01-07T07:52:29;3.50;91.10
84298;DHT22;74466;51.188;3.242;2024-01-07T07:54:55;3.50;90.80
84298;DHT22;74466;51.188;3.242;2024-01-07T07:57:21;3.50;90.80
84298;DHT22;74466;51.188;3.242;2024-01-07T07:59:48;3.50;90.50
84298;DHT22;74466;51.188;3.242;2024-01-07T08:02:14;3.50;90.50
84298;DHT22;74466;51.188;3.242;2024-01-07T08:04:40;3.40;91.00
84298;DHT22;74466;51.188;3.242;2024-01-07T08:07:09;3.40;90.70
84298;DHT22;74466;51.188;3.242;2024-01-07T08:09:35;3.40;90.70
84298;DHT22;74466;51.188;3.242;2024-01-07T08:12:06;3.40;90.70
84298;DHT22;74466;51.188;3.242;2024-01-07T08:14:32;3.50;90.40
84298;DHT22;74466;51.188;3.242;2024-01-07T08:16:58;3.60;90.60
84298;DHT22;74466;51.188;3.242;2024-01-07T08:19:24;3.60;90.00
84298;DHT22;74466;51.188;3.242;2024-01-07T08:21:51;3.60;90.00
84298;DHT22;74466;51.188;3.242;2024-01-07T08:24:16;3.60;90.10
84298;DHT22;74466;51.188;3.242;2024-01-07T08:26:42;3.60;89.20
84298;DHT22;74466;51.188;3.242;2024-01-07T08:29:08;3.60;89.20
84298;DHT22;74466;51.188;3.242;2024-01-07T08:31:33;3.60;88.70
84298;DHT22;74466;51.188;3.242;2024-01-07T08:34:00;3.50;88.00
84298;DHT22;74466;51.188;3.242;2024-01-07T08:36:26;3.40;88.80
84298;DHT22;74466;51.188;3.242;2024-01-07T08:38:51;3.50;89.10
84298;DHT22;74466;51.188;3.242;2024-01-07T08:41:17;3.50;89.20
84298;DHT22;74466;51.188;3.242;2024-01-07T08:43:44;3.50;89.10
84298;DHT22;74466;51.188;3.242;2024-01-07T08:46:11;3.60;88.50
84298;DHT22;74466;51.188;3.242;2024-01-07T08:48:36;3.60;89.40
84298;DHT22;74466;51.188;3.242;2024-01-07T08:51:02;3.50;88.70
84298;DHT22;74466;51.188;3.242;2024-01-07T08:53:28;3.60;88.50
84298;DHT22;74466;51.188;3.242;2024-01-07T08:55:54;3.60;87.20
84298;DHT22;74466;51.188;3.242;2024-01-07T08:58:20;3.60;88.20
84298;DHT22;74466;51.188;3.242;2024-01-07T09:00:46;3.60;87.50
84298;DHT22;74466;51.188;3.242;2024-01-07T09:03:12;3.60;88.20
84298;DHT22;74466;51.188;3.242;2024-01-07T09:05:38;3.70;88.60
84298;DHT22;74466;51.188;3.242;2024-01-07T09:08:04;3.70;88.70
84298;DHT22;74466;51.188;3.242;2024-01-07T09:10:50;3.80;88.00
84298;DHT22;74466;51.188;3.242;2024-01-07T09:13:17;3.80;87.60
84298;DHT22;74466;51.188;3.242;2024-01-07T09:15:42;3.80;86.80
84298;DHT22;74466;51.188;3.242;2024-01-07T09:18:08;3.80;87.60
84298;DHT22;74466;51.188;3.242;2024-01-07T09:20:34;3.70;88.50
84298;DHT22;74466;51.188;3.242;2024-01-07T09:23:00;3.60;87.30
84298;DHT22;74466;51.188;3.242;2024-01-07T09:25:26;3.70;89.10
84298;DHT22;74466;51.188;3.242;2024-01-07T09:27:52;3.70;87.70
84298;DHT22;74466;51.188;3.242;2024-01-07T09:30:17;3.70;87.90
84298;DHT22;74466;51.188;3.242;2024-01-07T09:32:44;3.70;87.80
84298;DHT22;74466;51.188;3.242;2024-01-07T09:35:09;3.70;87.90
84298;DHT22;74466;51.188;3.242;2024-01-07T09:37:35;3.80;88.90
84298;DHT22;74466;51.188;3.242;2024-01-07T09:40:01;3.90;88.10
84298;DHT22;74466;51.188;3.242;2024-01-07T09:42:27;3.90;88.80
84298;DHT22;74466;51.188;3.242;2024-01-07T09:44:53;3.90;87.80
84298;DHT22;74466;51.188;3.242;2024-01-07T09:47:20;3.90;87.90
84298;DHT22;74466;51.188;3.242;2024-01-07T09:49:46;3.80;88.30
84298;DHT22;74466;51.188;3.242;2024-01-07T09:52:12;3.80;88.70
84298;DHT22;74466;51.188;3.242;2024-01-07T09:54:39;3.70;88.80
84298;DHT22;74466;51.188;3.242;2024-01-07T09:57:07;3.80;89.50
84298;DHT22;74466;51.188;3.242;2024-01-07T09:59:34;3.80;89.90
84298;DHT22;74466;51.188;3.242;2024-01-07T10:02:00;3.80;88.80
84298;DHT22;74466;51.188;3.242;2024-01-07T10:04:27;3.70;89.30
84298;DHT22;74466;51.188;3.242;2024-01-07T10:06:53;3.80;88.50
84298;DHT22;74466;51.188;3.242;2024-01-07T10:09:22;3.70;89.40
84298;DHT22;74466;51.188;3.242;2024-01-07T10:11:49;3.70;88.30
84298;DHT22;74466;51.188;3.242;2024-01-07T10:14:15;3.80;89.30
84298;DHT22;74466;51.188;3.242;2024-01-07T10:16:41;3.90;89.20
84298;DHT22;74466;51.188;3.242;2024-01-07T10:19:07;3.80;88.00
84298;DHT22;74466;51.188;3.242;2024-01-07T10:21:36;3.70;89.90
84298;DHT22;74466;51.188;3.242;2024-01-07T10:24:12;3.80;89.60
84298;DHT22;74466;51.188;3.242;2024-01-07T10:26:38;3.80;89.30
84298;DHT22;74466;51.188;3.242;2024-01-07T10:29:05;3.90;88.00
84298;DHT22;74466;51.188;3.242;2024-01-07T10:31:32;3.80;88.70
84298;DHT22;74466;51.188;3.242;2024-01-07T10:33:57;3.80;88.00
84298;DHT22;74466;51.188;3.242;2024-01-07T10:36:24;3.80;88.00
84298;DHT22;74466;51.188;3.242;2024-01-07T10:38:50;3.90;88.00
84298;DHT22;74466;51.188;3.242;2024-01-07T10:41:20;3.80;88.40
84298;DHT22;74466;51.188;3.242;2024-01-07T10:43:49;3.80;88.10
84298;DHT22;74466;51.188;3.242;2024-01-07T10:46:16;3.80;87.40
84298;DHT22;74466;51.188;3.242;2024-01-07T10:48:59;3.70;88.70
84298;DHT22;74466;51.188;3.242;2024-01-07T10:51:28;3.80;87.90
84298;DHT22;74466;51.188;3.242;2024-01-07T10:53:56;3.90;86.90
84298;DHT22;74466;51.188;3.242;2024-01-07T10:56:29;3.90;87.10
84298;DHT22;74466;51.188;3.242;2024-01-07T10:58:57;3.90;87.50
84298;DHT22;74466;51.188;3.242;2024-01-07T11:01:23;3.90;87.50
84298;DHT22;74466;51.188;3.242;2024-01-07T11:04:01;3.90;88.30
84298;DHT22;74466;51.188;3.242;2024-01-07T11:11:55;3.90;87.60
84298;DHT22;74466;51.188;3.242;2024-01-07T11:14:43;3.90;87.80
84298;DHT22;74466;51.188;3.242;2024-01-07T11:20:21;3.80;87.90
84298;DHT22;74466;51.188;3.242;2024-01-07T11:22:48;3.80;86.80
84298;DHT22;74466;51.188;3.242;2024-01-07T11:25:43;3.80;88.40
84298;DHT22;74466;51.188;3.242;2024-01-07T11:28:09;3.80;88.40
84298;DHT22;74466;51.188;3.242;2024-01-07T11:30:40;3.80;88.70
84298;DHT22;74466;51.188;3.242;2024-01-07T11:33:06;3.90;88.60
84298;DHT22;74466;51.188;3.242;2024-01-07T11:38:24;4.00;87.20
84298;DHT22;74466;51.188;3.242;2024-01-07T11:40:51;4.00;86.90
84298;DHT22;74466;51.188;3.242;2024-01-07T11:43:17;4.00;86.60
84298;DHT22;74466;51.188;3.242;2024-01-07T11:45:44;3.90;86.60
84298;DHT22;74466;51.188;3.242;2024-01-07T11:48:10;3.80;86.90
84298;DHT22;74466;51.188;3.242;2024-01-07T11:50:36;3.90;90.30
84298;DHT22;74466;51.188;3.242;2024-01-07T11:53:02;3.90;87.50
84298;DHT22;74466;51.188;3.242;2024-01-07T11:55:28;3.90;87.30
84298;DHT22;74466;51.188;3.242;2024-01-07T11:58:00;3.90;87.40
84298;DHT22;74466;51.188;3.242;2024-01-07T12:00:26;3.80;87.90
84298;DHT22;74466;51.188;3.242;2024-01-07T12:02:51;3.90;87.20
84298;DHT22;74466;51.188;3.242;2024-01-07T12:05:17;3.80;87.50
84298;DHT22;74466;51.188;3.242;2024-01-07T12:07:43;3.80;88.00
84298;DHT22;74466;51.188;3.242;2024-01-07T12:10:08;3.80;88.40
84298;DHT22;74466;51.188;3.242;2024-01-07T12:12:39;3.70;86.80
84298;DHT22;74466;51.188;3.242;2024-01-07T12:15:07;3.60;87.10
84298;DHT22;74466;51.188;3.242;2024-01-07T12:17:33;3.70;88.20
84298;DHT22;74466;51.188;3.242;2024-01-07T12:20:00;3.60;86.30
84298;DHT22;74466;51.188;3.242;2024-01-07T12:22:28;3.60;85.90
84298;DHT22;74466;51.188;3.242;2024-01-07T12:25:05;3.50;86.90
84298;DHT22;74466;51.188;3.242;2024-01-07T12:27:31;3.50;87.20
84298;DHT22;74466;51.188;3.242;2024-01-07T12:29:57;3.50;87.20
84298;DHT22;74466;51.188;3.242;2024-01-07T12:32:27;3.50;86.70
84298;DHT22;74466;51.188;3.242;2024-01-07T12:34:52;3.60;87.00
84298;DHT22;74466;51.188;3.242;2024-01-07T12:37:19;3.50;88.10
84298;DHT22;74466;51.188;3.242;2024-01-07T12:39:44;3.50;87.50
84298;DHT22;74466;51.188;3.242;2024-01-07T12:42:10;3.50;87.00
84298;DHT22;74466;51.188;3.242;2024-01-07T12:44:36;3.40;87.00
84298;DHT22;74466;51.188;3.242;2024-01-07T12:47:02;3.50;87.10
84298;DHT22;74466;51.188;3.242;2024-01-07T12:49:29;3.50;86.90
84298;DHT22;74466;51.188;3.242;2024-01-07T12:51:55;3.40;86.50
84298;DHT22;74466;51.188;3.242;2024-01-07T12:54:20;3.50;87.70
84298;DHT22;74466;51.188;3.242;2024-01-07T12:56:48;3.60;87.10
84298;DHT22;74466;51.188;3.242;2024-01-07T12:59:14;3.50;86.60
84298;DHT22;74466;51.188;3.242;2024-01-07T13:01:40;3.50;86.50
84298;DHT22;74466;51.188;3.242;2024-01-07T13:04:05;3.50;87.80
84298;DHT22;74466;51.188;3.242;2024-01-07T13:06:31;3.50;86.10
84298;DHT22;74466;51.188;3.242;2024-01-07T13:08:57;3.50;85.70
84298;DHT22;74466;51.188;3.242;2024-01-07T13:11:22;3.60;86.00
84298;DHT22;74466;51.188;3.242;2024-01-07T13:13:49;3.60;85.50
84298;DHT22;74466;51.188;3.242;2024-01-07T13:16:14;3.60;86.40
84298;DHT22;74466;51.188;3.242;2024-01-07T13:18:40;3.60;85.60
84298;DHT22;74466;51.188;3.242;2024-01-07T13:21:06;3.70;84.90
84298;DHT22;74466;51.188;3.242;2024-01-07T13:23:32;3.60;84.40
84298;DHT22;74466;51.188;3.242;2024-01-07T13:25:58;3.60;85.80
84298;DHT22;74466;51.188;3.242;2024-01-07T13:28:24;3.60;85.70
84298;DHT22;74466;51.188;3.242;2024-01-07T13:30:49;3.50;85.20
84298;DHT22;74466;51.188;3.242;2024-01-07T13:33:15;3.50;85.80
84298;DHT22;74466;51.188;3.242;2024-01-07T13:35:43;3.50;87.40
84298;DHT22;74466;51.188;3.242;2024-01-07T13:38:09;3.50;86.10
84298;DHT22;74466;51.188;3.242;2024-01-07T13:40:35;3.40;86.30
84298;DHT22;74466;51.188;3.242;2024-01-07T13:43:01;3.40;85.20
84298;DHT22;74466;51.188;3.242;2024-01-07T13:45:28;3.30;86.60
84298;DHT22;74466;51.188;3.242;2024-01-07T13:47:54;3.30;86.10
84298;DHT22;74466;51.188;3.242;2024-01-07T13:50:20;3.30;86.00
84298;DHT22;74466;51.188;3.242;2024-01-07T13:52:46;3.30;86.20
84298;DHT22;74466;51.188;3.242;2024-01-07T13:55:12;3.30;86.30
84298;DHT22;74466;51.188;3.242;2024-01-07T13:57:39;3.40;85.70
84298;DHT22;74466;51.188;3.242;2024-01-07T14:00:07;3.40;85.50
84298;DHT22;74466;51.188;3.242;2024-01-07T14:02:39;3.40;85.10
84298;DHT22;74466;51.188;3.242;2024-01-07T14:05:06;3.50;84.80
84298;DHT22;74466;51.188;3.242;2024-01-07T14:07:34;3.30;84.70
84298;DHT22;74466;51.188;3.242;2024-01-07T14:09:59;3.30;85.20
84298;DHT22;74466;51.188;3.242;2024-01-07T14:12:28;3.40;85.70
84298;DHT22;74466;51.188;3.242;2024-01-07T14:14:54;3.40;85.10
84298;DHT22;74466;51.188;3.242;2024-01-07T14:17:20;3.40;85.20
84298;DHT22;74466;51.188;3.242;2024-01-07T14:19:46;3.30;84.40
84298;DHT22;74466;51.188;3.242;2024-01-07T14:22:15;3.20;84.60
84298;DHT22;74466;51.188;3.242;2024-01-07T14:24:41;3.20;85.70
84298;DHT22;74466;51.188;3.242;2024-01-07T14:27:07;3.10;84.60
84298;DHT22;74466;51.188;3.242;2024-01-07T14:29:33;3.10;84.60
84298;DHT22;74466;51.188;3.242;2024-01-07T14:31:58;3.00;85.10
84298;DHT22;74466;51.188;3.242;2024-01-07T14:34:26;3.00;85.60
84298;DHT22;74466;51.188;3.242;2024-01-07T14:36:52;2.90;85.10
84298;DHT22;74466;51.188;3.242;2024-01-07T14:39:18;2.90;85.30
84298;DHT22;74466;51.188;3.242;2024-01-07T14:41:44;2.90;85.60
84298;DHT22;74466;51.188;3.242;2024-01-07T14:44:10;2.90;84.70
84298;DHT22;74466;51.188;3.242;2024-01-07T14:46:36;3.00;85.40
84298;DHT22;74466;51.188;3.242;2024-01-07T14:49:02;3.10;85.10
84298;DHT22;74466;51.188;3.242;2024-01-07T14:51:29;3.10;84.90
84298;DHT22;74466;51.188;3.242;2024-01-07T14:53:56;3.10;84.90
84298;DHT22;74466;51.188;3.242;2024-01-07T14:56:21;3.10;85.40
84298;DHT22;74466;51.188;3.242;2024-01-07T14:58:48;3.10;85.00
84298;DHT22;74466;51.188;3.242;2024-01-07T15:01:15;3.10;85.20
84298;DHT22;74466;51.188;3.242;2024-01-07T15:03:41;3.20;85.70
84298;DHT22;74466;51.188;3.242;2024-01-07T15:06:06;3.20;85.80
84298;DHT22;74466;51.188;3.242;2024-01-07T15:08:34;3.10;85.20
84298;DHT22;74466;51.188;3.242;2024-01-07T15:11:01;3.00;86.50
84298;DHT22;74466;51.188;3.242;2024-01-07T15:13:27;3.00;85.50
84298;DHT22;74466;51.188;3.242;2024-01-07T15:15:54;2.90;84.70
84298;DHT22;74466;51.188;3.242;2024-01-07T15:18:20;2.80;84.60
84298;DHT22;74466;51.188;3.242;2024-01-07T15:20:46;2.80;84.40
84298;DHT22;74466;51.188;3.242;2024-01-07T15:23:11;2.70;84.10
84298;DHT22;74466;51.188;3.242;2024-01-07T15:25:37;2.70;84.90
84298;DHT22;74466;51.188;3.242;2024-01-07T15:28:03;2.70;84.30
84298;DHT22;74466;51.188;3.242;2024-01-07T15:30:29;2.70;84.00
84298;DHT22;74466;51.188;3.242;2024-01-07T15:32:54;2.60;83.80
84298;DHT22;74466;51.188;3.242;2024-01-07T15:35:20;2.60;82.80
84298;DHT22;74466;51.188;3.242;2024-01-07T15:37:46;2.60;83.50
84298;DHT22;74466;51.188;3.242;2024-01-07T15:40:12;2.50;82.80
84298;DHT22;74466;51.188;3.242;2024-01-07T15:42:40;2.50;84.00
84298;DHT22;74466;51.188;3.242;2024-01-07T15:45:06;2.50;83.90
84298;DHT22;74466;51.188;3.242;2024-01-07T15:47:32;2.60;84.80
84298;DHT22;74466;51.188;3.242;2024-01-07T15:50:00;2.70;83.90
84298;DHT22;74466;51.188;3.242;2024-01-07T15:52:27;2.70;84.40